AAL1821 KMIA-MDSD
Flight info
| Callsign | AAL1821 |
|---|---|
| Flight time | 1h 43m |
| Altitude | 37000 |
| Route | KLADA2 JAGOR DCT RUMFO Y441 JUELE UW38 PTA DCT KODIX KODIX4G |
| Aircraft | B738/M-SDE2E3FGHIRWXY/LB1 |
Departure
| Time | 2026-04-30 19:44 |
|---|---|
| Airport | Miami International Airport (KMIA) |
Arrival
| Time | 2026-04-30 21:27 |
|---|---|
| Airport | Las Américas International Airport (MDSD) |
| Time | Latitude | Longitude | Altitude | Speed | Heading |
|---|---|---|---|---|---|
| 2026-04-30 19:03 | 25.79790 | -80.27595 | 14 ft | 0 kts | 179° |
| 2026-04-30 19:27 | 25.79798 | -80.27595 | 14 ft | 2 kts | 176° |
| 2026-04-30 19:27 | 25.79831 | -80.27596 | 14 ft | 2 kts | 178° |
| 2026-04-30 19:28 | 25.79848 | -80.27596 | 14 ft | 2 kts | 178° |
| 2026-04-30 19:28 | 25.79881 | -80.27598 | 14 ft | 2 kts | 202° |
| 2026-04-30 19:29 | 25.79896 | -80.27572 | 14 ft | 1 kts | 265° |
| 2026-04-30 19:29 | 25.79896 | -80.27571 | 14 ft | 0 kts | 266° |
| 2026-04-30 19:35 | 25.79896 | -80.27572 | 14 ft | 1 kts | 266° |
| 2026-04-30 19:36 | 25.79900 | -80.27638 | 14 ft | 9 kts | 297° |
| 2026-04-30 19:36 | 25.79942 | -80.27654 | 14 ft | 8 kts | 11° |
| 2026-04-30 19:36 | 25.80059 | -80.27648 | 15 ft | 13 kts | 298° |
| 2026-04-30 19:37 | 25.80058 | -80.27759 | 14 ft | 16 kts | 271° |
| 2026-04-30 19:37 | 25.80057 | -80.27878 | 14 ft | 15 kts | 263° |
| 2026-04-30 19:37 | 25.80049 | -80.27995 | 13 ft | 15 kts | 266° |
| 2026-04-30 19:37 | 25.80044 | -80.28107 | 14 ft | 15 kts | 268° |
| 2026-04-30 19:38 | 25.80040 | -80.28219 | 14 ft | 14 kts | 268° |
| 2026-04-30 19:38 | 25.80036 | -80.28328 | 14 ft | 14 kts | 268° |
| 2026-04-30 19:38 | 25.80032 | -80.28433 | 14 ft | 13 kts | 266° |
| 2026-04-30 19:38 | 25.80028 | -80.28533 | 14 ft | 13 kts | 265° |
| 2026-04-30 19:39 | 25.80022 | -80.28630 | 15 ft | 13 kts | 266° |
| 2026-04-30 19:39 | 25.80017 | -80.28725 | 16 ft | 12 kts | 266° |
| 2026-04-30 19:39 | 25.80013 | -80.28818 | 16 ft | 12 kts | 268° |
| 2026-04-30 19:39 | 25.80010 | -80.28909 | 16 ft | 12 kts | 268° |
| 2026-04-30 19:40 | 25.80007 | -80.28996 | 15 ft | 11 kts | 268° |
| 2026-04-30 19:40 | 25.80005 | -80.29081 | 16 ft | 11 kts | 268° |
| 2026-04-30 19:40 | 25.80001 | -80.29165 | 16 ft | 11 kts | 266° |
| 2026-04-30 19:40 | 25.79997 | -80.29245 | 15 ft | 10 kts | 267° |
| 2026-04-30 19:41 | 25.79993 | -80.29324 | 15 ft | 10 kts | 267° |
| 2026-04-30 19:41 | 25.79990 | -80.29400 | 14 ft | 10 kts | 267° |
| 2026-04-30 19:41 | 25.79985 | -80.29524 | 14 ft | 22 kts | 268° |
| 2026-04-30 19:41 | 25.79978 | -80.29692 | 14 ft | 22 kts | 267° |
| 2026-04-30 19:42 | 25.79972 | -80.29842 | 13 ft | 18 kts | 267° |
| 2026-04-30 19:42 | 25.79972 | -80.29977 | 13 ft | 17 kts | 285° |
| 2026-04-30 19:42 | 25.80013 | -80.30100 | 15 ft | 17 kts | 294° |
| 2026-04-30 19:42 | 25.80053 | -80.30126 | 14 ft | 1 kts | 11° |
| 2026-04-30 19:43 | 25.80068 | -80.30110 | 14 ft | 5 kts | 62° |
| 2026-04-30 19:43 | 25.80074 | -80.30062 | 14 ft | 7 kts | 83° |
| 2026-04-30 19:43 | 25.80080 | -80.29987 | 14 ft | 19 kts | 87° |
| 2026-04-30 19:44 | 25.80141 | -80.28394 | 196 ft | 174 kts | 92° |
| 2026-04-30 19:44 | 25.80179 | -80.26975 | 1238 ft | 187 kts | 95° |
| 2026-04-30 19:44 | 25.79772 | -80.25677 | 2466 ft | 186 kts | 119° |
| 2026-04-30 19:44 | 25.79160 | -80.24251 | 3013 ft | 218 kts | 116° |
| 2026-04-30 19:45 | 25.78525 | -80.22624 | 3280 ft | 245 kts | 114° |
| 2026-04-30 19:45 | 25.77860 | -80.20838 | 3840 ft | 253 kts | 114° |
| 2026-04-30 19:45 | 25.77184 | -80.18998 | 4514 ft | 260 kts | 113° |
| 2026-04-30 19:45 | 25.76452 | -80.17179 | 5225 ft | 261 kts | 119° |
| 2026-04-30 19:46 | 25.75569 | -80.15403 | 5940 ft | 268 kts | 121° |
| 2026-04-30 19:46 | 25.74606 | -80.13512 | 6418 ft | 288 kts | 121° |
| 2026-04-30 19:46 | 25.73631 | -80.11579 | 7243 ft | 292 kts | 120° |
| 2026-04-30 19:46 | 25.72746 | -80.09512 | 8102 ft | 298 kts | 112° |
| 2026-04-30 19:47 | 25.72015 | -80.07346 | 8971 ft | 302 kts | 109° |
| 2026-04-30 19:47 | 25.71548 | -80.05878 | 9552 ft | 306 kts | 109° |
| 2026-04-30 19:47 | 25.70597 | -80.02868 | 10395 ft | 323 kts | 109° |
| 2026-04-30 19:47 | 25.69813 | -80.00418 | 10584 ft | 350 kts | 109° |
| 2026-04-30 19:48 | 25.68958 | -79.97784 | 10787 ft | 374 kts | 110° |
| 2026-04-30 19:48 | 25.68047 | -79.95007 | 11239 ft | 386 kts | 110° |
| 2026-04-30 19:48 | 25.67117 | -79.92193 | 11905 ft | 390 kts | 110° |
| 2026-04-30 19:48 | 25.66183 | -79.89375 | 12624 ft | 394 kts | 110° |
| 2026-04-30 19:49 | 25.65229 | -79.86506 | 13354 ft | 397 kts | 110° |
| 2026-04-30 19:49 | 25.63289 | -79.80680 | 14627 ft | 405 kts | 110° |
| 2026-04-30 19:49 | 25.62320 | -79.77769 | 15267 ft | 408 kts | 110° |
| 2026-04-30 19:50 | 25.61331 | -79.74804 | 15897 ft | 412 kts | 110° |
| 2026-04-30 19:50 | 25.60331 | -79.71809 | 16524 ft | 415 kts | 110° |
| 2026-04-30 19:50 | 25.59282 | -79.68860 | 17114 ft | 418 kts | 114° |
| 2026-04-30 19:50 | 25.58024 | -79.65900 | 17732 ft | 421 kts | 116° |
| 2026-04-30 19:51 | 25.56716 | -79.62974 | 18305 ft | 425 kts | 116° |
| 2026-04-30 19:51 | 25.55396 | -79.60066 | 18790 ft | 428 kts | 117° |
| 2026-04-30 19:51 | 25.54048 | -79.57094 | 19245 ft | 432 kts | 116° |
| 2026-04-30 19:51 | 25.52708 | -79.54126 | 19691 ft | 436 kts | 116° |
| 2026-04-30 19:52 | 25.51346 | -79.51087 | 20143 ft | 440 kts | 116° |
| 2026-04-30 19:52 | 25.49978 | -79.48026 | 20581 ft | 444 kts | 116° |
| 2026-04-30 19:52 | 25.48629 | -79.44996 | 21010 ft | 447 kts | 116° |
| 2026-04-30 19:52 | 25.47243 | -79.41882 | 21432 ft | 451 kts | 116° |
| 2026-04-30 19:53 | 25.45845 | -79.38742 | 21839 ft | 454 kts | 116° |
| 2026-04-30 19:53 | 25.44444 | -79.35596 | 22239 ft | 458 kts | 116° |
| 2026-04-30 19:53 | 25.43043 | -79.32454 | 22623 ft | 461 kts | 116° |
| 2026-04-30 19:53 | 25.41617 | -79.29257 | 23016 ft | 464 kts | 116° |
| 2026-04-30 19:54 | 25.40177 | -79.26032 | 23387 ft | 467 kts | 116° |
| 2026-04-30 19:54 | 25.38742 | -79.22821 | 23703 ft | 470 kts | 116° |
| 2026-04-30 19:54 | 25.37290 | -79.19573 | 24033 ft | 472 kts | 116° |
| 2026-04-30 19:54 | 25.35825 | -79.16302 | 24388 ft | 473 kts | 116° |
| 2026-04-30 19:55 | 25.34379 | -79.13073 | 24728 ft | 474 kts | 116° |
| 2026-04-30 19:55 | 25.32909 | -79.09792 | 25052 ft | 476 kts | 116° |
| 2026-04-30 19:55 | 25.31428 | -79.06491 | 25369 ft | 478 kts | 116° |
| 2026-04-30 19:55 | 25.29966 | -79.03234 | 25684 ft | 479 kts | 116° |
| 2026-04-30 19:56 | 25.28474 | -78.99912 | 26014 ft | 481 kts | 116° |
| 2026-04-30 19:56 | 25.26983 | -78.96595 | 26330 ft | 482 kts | 116° |
| 2026-04-30 19:56 | 25.25503 | -78.93305 | 26631 ft | 483 kts | 116° |
| 2026-04-30 19:56 | 25.23997 | -78.89961 | 26929 ft | 485 kts | 116° |
| 2026-04-30 19:57 | 25.22487 | -78.86608 | 27211 ft | 487 kts | 116° |
| 2026-04-30 19:57 | 25.20991 | -78.83291 | 27475 ft | 489 kts | 116° |
| 2026-04-30 19:57 | 25.19471 | -78.79922 | 27746 ft | 490 kts | 116° |
| 2026-04-30 19:57 | 25.17944 | -78.76540 | 28015 ft | 492 kts | 116° |
| 2026-04-30 19:58 | 25.16426 | -78.73180 | 28265 ft | 494 kts | 116° |
| 2026-04-30 19:58 | 25.14888 | -78.69778 | 28507 ft | 496 kts | 116° |
| 2026-04-30 19:58 | 25.13338 | -78.66352 | 28749 ft | 498 kts | 116° |
| 2026-04-30 19:58 | 25.11785 | -78.62922 | 28980 ft | 500 kts | 115° |
| 2026-04-30 19:59 | 25.10246 | -78.59526 | 29204 ft | 502 kts | 116° |
| 2026-04-30 19:59 | 25.08630 | -78.56084 | 29476 ft | 502 kts | 117° |
| 2026-04-30 19:59 | 25.05279 | -78.49311 | 30173 ft | 500 kts | 117° |
| 2026-04-30 20:00 | 25.03621 | -78.46002 | 30490 ft | 499 kts | 117° |
| 2026-04-30 20:00 | 25.01942 | -78.42642 | 30793 ft | 499 kts | 117° |
| 2026-04-30 20:00 | 25.00276 | -78.39290 | 31091 ft | 498 kts | 117° |
| 2026-04-30 20:00 | 24.98612 | -78.35927 | 31412 ft | 498 kts | 117° |
| 2026-04-30 20:01 | 24.95312 | -78.29247 | 32096 ft | 496 kts | 117° |
| 2026-04-30 20:01 | 24.93678 | -78.25939 | 32415 ft | 495 kts | 117° |
| 2026-04-30 20:01 | 24.92027 | -78.22600 | 32737 ft | 495 kts | 117° |
| 2026-04-30 20:02 | 24.88739 | -78.15960 | 33376 ft | 494 kts | 117° |
| 2026-04-30 20:02 | 24.87088 | -78.12631 | 33694 ft | 494 kts | 117° |
| 2026-04-30 20:03 | 24.83807 | -78.06020 | 34328 ft | 492 kts | 116° |
| 2026-04-30 20:03 | 24.82164 | -78.02715 | 34647 ft | 490 kts | 116° |
| 2026-04-30 20:03 | 24.80545 | -77.99460 | 34964 ft | 488 kts | 116° |
| 2026-04-30 20:03 | 24.78913 | -77.96179 | 35258 ft | 487 kts | 116° |
| 2026-04-30 20:04 | 24.77283 | -77.92905 | 35554 ft | 486 kts | 116° |
| 2026-04-30 20:04 | 24.75655 | -77.89638 | 35854 ft | 485 kts | 116° |
| 2026-04-30 20:04 | 24.74051 | -77.86422 | 36145 ft | 484 kts | 116° |
| 2026-04-30 20:05 | 24.70816 | -77.79937 | 36695 ft | 482 kts | 116° |
| 2026-04-30 20:05 | 24.69197 | -77.76697 | 36976 ft | 481 kts | 116° |
| 2026-04-30 20:05 | 24.65861 | -77.70305 | 36974 ft | 485 kts | 119° |
| 2026-04-30 20:06 | 24.62210 | -77.64095 | 36962 ft | 481 kts | 121° |
| 2026-04-30 20:06 | 24.58555 | -77.58005 | 36960 ft | 478 kts | 120° |
| 2026-04-30 20:07 | 24.54923 | -77.51889 | 36964 ft | 477 kts | 120° |
| 2026-04-30 20:08 | 24.49528 | -77.42725 | 36960 ft | 476 kts | 120° |
| 2026-04-30 20:08 | 24.45951 | -77.36647 | 36960 ft | 477 kts | 120° |
| 2026-04-30 20:09 | 24.42332 | -77.30507 | 36963 ft | 479 kts | 120° |
| 2026-04-30 20:09 | 24.36893 | -77.21299 | 36963 ft | 481 kts | 120° |
| 2026-04-30 20:10 | 24.31424 | -77.12058 | 36965 ft | 484 kts | 120° |
| 2026-04-30 20:11 | 24.25923 | -77.02782 | 36963 ft | 485 kts | 120° |
| 2026-04-30 20:11 | 24.22250 | -76.96598 | 36964 ft | 485 kts | 121° |
| 2026-04-30 20:12 | 24.16706 | -76.87278 | 36964 ft | 486 kts | 121° |
| 2026-04-30 20:13 | 24.13036 | -76.81119 | 36967 ft | 486 kts | 121° |
| 2026-04-30 20:13 | 24.09346 | -76.74933 | 36969 ft | 486 kts | 121° |
| 2026-04-30 20:14 | 24.05637 | -76.68723 | 36967 ft | 486 kts | 121° |
| 2026-04-30 20:14 | 24.01954 | -76.62563 | 36965 ft | 485 kts | 121° |
| 2026-04-30 20:15 | 23.98245 | -76.56369 | 36963 ft | 485 kts | 121° |
| 2026-04-30 20:15 | 23.94556 | -76.50216 | 36963 ft | 485 kts | 121° |
| 2026-04-30 20:16 | 23.90866 | -76.44069 | 36962 ft | 485 kts | 121° |
| 2026-04-30 20:16 | 23.87155 | -76.37893 | 36964 ft | 485 kts | 122° |
| 2026-04-30 20:17 | 23.83469 | -76.31767 | 36961 ft | 485 kts | 122° |
| 2026-04-30 20:17 | 23.79744 | -76.25585 | 36958 ft | 485 kts | 122° |
| 2026-04-30 20:18 | 23.76048 | -76.19458 | 36961 ft | 485 kts | 122° |
| 2026-04-30 20:18 | 23.72350 | -76.13334 | 36961 ft | 485 kts | 122° |
| 2026-04-30 20:19 | 23.68617 | -76.07160 | 36962 ft | 486 kts | 122° |
| 2026-04-30 20:19 | 23.64899 | -76.01019 | 36962 ft | 486 kts | 122° |
| 2026-04-30 20:20 | 23.61186 | -75.94894 | 36961 ft | 487 kts | 122° |
| 2026-04-30 20:20 | 23.57439 | -75.88719 | 36961 ft | 487 kts | 122° |
| 2026-04-30 20:21 | 23.54318 | -75.83584 | 36960 ft | 488 kts | 122° |
| 2026-04-30 20:21 | 23.49942 | -75.76389 | 36962 ft | 489 kts | 122° |
| 2026-04-30 20:22 | 23.46193 | -75.70233 | 36963 ft | 489 kts | 123° |
| 2026-04-30 20:22 | 23.42434 | -75.64070 | 36959 ft | 489 kts | 123° |
| 2026-04-30 20:23 | 23.39297 | -75.58932 | 36960 ft | 489 kts | 123° |
| 2026-04-30 20:23 | 23.35524 | -75.52758 | 36957 ft | 489 kts | 123° |
| 2026-04-30 20:24 | 23.31768 | -75.46621 | 36959 ft | 488 kts | 123° |
| 2026-04-30 20:24 | 23.28017 | -75.40498 | 36959 ft | 488 kts | 123° |
| 2026-04-30 20:25 | 23.22376 | -75.31305 | 36960 ft | 487 kts | 123° |
| 2026-04-30 20:26 | 23.16736 | -75.22128 | 36958 ft | 487 kts | 123° |
| 2026-04-30 20:26 | 23.11103 | -75.12976 | 36962 ft | 486 kts | 123° |
| 2026-04-30 20:27 | 23.03428 | -75.00878 | 36961 ft | 486 kts | 125° |
| 2026-04-30 20:28 | 22.95624 | -74.88942 | 36966 ft | 486 kts | 124° |
| 2026-04-30 20:30 | 22.85892 | -74.73992 | 36959 ft | 486 kts | 124° |
| 2026-04-30 20:31 | 22.74196 | -74.56077 | 36959 ft | 486 kts | 124° |
| 2026-04-30 20:32 | 22.64407 | -74.41130 | 36958 ft | 487 kts | 124° |
| 2026-04-30 20:33 | 22.58532 | -74.32180 | 36957 ft | 488 kts | 124° |
| 2026-04-30 20:34 | 22.52637 | -74.23215 | 36960 ft | 489 kts | 125° |
| 2026-04-30 20:35 | 22.46725 | -74.14240 | 36957 ft | 489 kts | 125° |
| 2026-04-30 20:35 | 22.40799 | -74.05257 | 36961 ft | 490 kts | 125° |
| 2026-04-30 20:36 | 22.36855 | -73.99288 | 36962 ft | 490 kts | 125° |
| 2026-04-30 20:37 | 22.30918 | -73.90316 | 36962 ft | 490 kts | 126° |
| 2026-04-30 20:37 | 22.26948 | -73.84323 | 36960 ft | 490 kts | 126° |
| 2026-04-30 20:38 | 22.22970 | -73.78326 | 36960 ft | 490 kts | 126° |
| 2026-04-30 20:38 | 22.19023 | -73.72382 | 36965 ft | 489 kts | 126° |
| 2026-04-30 20:39 | 22.13079 | -73.63444 | 36963 ft | 489 kts | 127° |
| 2026-04-30 20:40 | 22.07130 | -73.54512 | 36967 ft | 489 kts | 127° |
| 2026-04-30 20:40 | 22.03155 | -73.48553 | 36961 ft | 489 kts | 127° |
| 2026-04-30 20:41 | 21.97229 | -73.39679 | 36961 ft | 489 kts | 127° |
| 2026-04-30 20:41 | 21.93243 | -73.33721 | 36959 ft | 490 kts | 127° |
| 2026-04-30 20:42 | 21.89265 | -73.27779 | 36963 ft | 490 kts | 128° |
| 2026-04-30 20:43 | 21.83266 | -73.18832 | 36960 ft | 491 kts | 128° |
| 2026-04-30 20:43 | 21.79263 | -73.12869 | 36962 ft | 492 kts | 128° |
| 2026-04-30 20:44 | 21.73262 | -73.03943 | 36961 ft | 492 kts | 128° |
| 2026-04-30 20:45 | 21.65224 | -72.92011 | 36957 ft | 493 kts | 128° |
| 2026-04-30 20:45 | 21.61182 | -72.86019 | 36956 ft | 494 kts | 129° |
| 2026-04-30 20:46 | 21.53092 | -72.74050 | 36970 ft | 501 kts | 129° |
| 2026-04-30 20:47 | 21.46920 | -72.64935 | 36949 ft | 503 kts | 129° |
| 2026-04-30 20:48 | 21.40785 | -72.55886 | 36955 ft | 502 kts | 129° |
| 2026-04-30 20:48 | 21.36660 | -72.49811 | 36956 ft | 502 kts | 129° |
| 2026-04-30 20:49 | 21.32554 | -72.43773 | 36960 ft | 503 kts | 129° |
| 2026-04-30 20:50 | 21.26353 | -72.34665 | 36960 ft | 503 kts | 130° |
| 2026-04-30 20:50 | 21.22244 | -72.28637 | 36955 ft | 503 kts | 130° |
| 2026-04-30 20:51 | 21.18115 | -72.22587 | 36959 ft | 504 kts | 130° |
| 2026-04-30 20:51 | 21.11896 | -72.13486 | 36958 ft | 504 kts | 130° |
| 2026-04-30 20:52 | 21.07774 | -72.07463 | 36954 ft | 504 kts | 130° |
| 2026-04-30 20:53 | 21.01560 | -71.98394 | 36954 ft | 504 kts | 130° |
| 2026-04-30 20:53 | 20.97404 | -71.92336 | 36954 ft | 504 kts | 130° |
| 2026-04-30 20:54 | 20.91174 | -71.83268 | 36956 ft | 504 kts | 130° |
| 2026-04-30 20:55 | 20.84953 | -71.74228 | 36955 ft | 504 kts | 130° |
| 2026-04-30 20:55 | 20.80790 | -71.68186 | 36953 ft | 503 kts | 130° |
| 2026-04-30 20:56 | 20.74587 | -71.59196 | 36966 ft | 503 kts | 130° |
| 2026-04-30 20:57 | 20.68353 | -71.50174 | 36864 ft | 500 kts | 130° |
| 2026-04-30 20:57 | 20.66306 | -71.47214 | 36588 ft | 498 kts | 130° |
| 2026-04-30 20:57 | 20.64255 | -71.44249 | 36342 ft | 494 kts | 130° |
| 2026-04-30 20:58 | 20.60148 | -71.38322 | 35866 ft | 497 kts | 130° |
| 2026-04-30 20:58 | 20.58107 | -71.35379 | 35631 ft | 498 kts | 130° |
| 2026-04-30 20:58 | 20.56039 | -71.32398 | 35392 ft | 499 kts | 130° |
| 2026-04-30 20:58 | 20.53967 | -71.29411 | 35168 ft | 500 kts | 130° |
| 2026-04-30 20:59 | 20.49788 | -71.23395 | 33622 ft | 510 kts | 130° |
| 2026-04-30 20:59 | 20.47667 | -71.20339 | 32687 ft | 509 kts | 130° |
| 2026-04-30 21:00 | 20.43455 | -71.14283 | 30914 ft | 508 kts | 130° |
| 2026-04-30 21:00 | 20.38607 | -71.09054 | 30231 ft | 494 kts | 146° |
| 2026-04-30 21:01 | 20.33193 | -71.04606 | 29784 ft | 492 kts | 146° |
| 2026-04-30 21:01 | 20.30474 | -71.02382 | 29515 ft | 492 kts | 146° |
| 2026-04-30 21:01 | 20.25036 | -70.97888 | 28982 ft | 494 kts | 146° |
| 2026-04-30 21:02 | 20.22351 | -70.95652 | 28722 ft | 495 kts | 146° |
| 2026-04-30 21:02 | 20.19628 | -70.93379 | 28470 ft | 496 kts | 146° |
| 2026-04-30 21:02 | 20.16912 | -70.91109 | 28212 ft | 496 kts | 146° |
| 2026-04-30 21:02 | 20.14229 | -70.88869 | 27963 ft | 496 kts | 146° |
| 2026-04-30 21:03 | 20.11501 | -70.86592 | 27701 ft | 496 kts | 146° |
| 2026-04-30 21:03 | 20.08787 | -70.84330 | 27455 ft | 496 kts | 146° |
| 2026-04-30 21:03 | 20.06104 | -70.82094 | 27211 ft | 495 kts | 146° |
| 2026-04-30 21:03 | 20.03371 | -70.79818 | 26960 ft | 495 kts | 146° |
| 2026-04-30 21:04 | 20.00696 | -70.77592 | 26716 ft | 494 kts | 146° |
| 2026-04-30 21:04 | 19.97926 | -70.75288 | 26463 ft | 493 kts | 146° |
| 2026-04-30 21:04 | 19.92573 | -70.70837 | 26007 ft | 488 kts | 146° |
| 2026-04-30 21:05 | 19.89925 | -70.68636 | 25947 ft | 486 kts | 146° |
| 2026-04-30 21:05 | 19.87250 | -70.66416 | 25916 ft | 485 kts | 146° |
| 2026-04-30 21:05 | 19.84585 | -70.64205 | 25918 ft | 485 kts | 146° |
| 2026-04-30 21:05 | 19.81916 | -70.61990 | 25911 ft | 486 kts | 146° |
| 2026-04-30 21:06 | 19.79255 | -70.59783 | 25911 ft | 486 kts | 146° |
| 2026-04-30 21:06 | 19.76617 | -70.57598 | 25914 ft | 486 kts | 147° |
| 2026-04-30 21:06 | 19.73875 | -70.55504 | 25907 ft | 484 kts | 151° |
| 2026-04-30 21:06 | 19.71067 | -70.53552 | 25903 ft | 480 kts | 152° |
| 2026-04-30 21:07 | 19.68315 | -70.51684 | 25885 ft | 458 kts | 152° |
| 2026-04-30 21:07 | 19.65661 | -70.49884 | 25518 ft | 445 kts | 152° |
| 2026-04-30 21:07 | 19.63120 | -70.48156 | 25150 ft | 432 kts | 152° |
| 2026-04-30 21:07 | 19.60634 | -70.46458 | 24655 ft | 417 kts | 152° |
| 2026-04-30 21:08 | 19.58232 | -70.44811 | 24258 ft | 402 kts | 152° |
| 2026-04-30 21:08 | 19.55911 | -70.43218 | 23893 ft | 390 kts | 152° |
| 2026-04-30 21:08 | 19.53693 | -70.41695 | 23473 ft | 379 kts | 152° |
| 2026-04-30 21:08 | 19.51507 | -70.40195 | 23013 ft | 369 kts | 152° |
| 2026-04-30 21:09 | 19.49368 | -70.38728 | 22540 ft | 361 kts | 152° |
| 2026-04-30 21:09 | 19.47280 | -70.37297 | 22092 ft | 362 kts | 152° |
| 2026-04-30 21:09 | 19.45147 | -70.35838 | 21654 ft | 363 kts | 152° |
| 2026-04-30 21:09 | 19.43037 | -70.34393 | 21217 ft | 364 kts | 152° |
| 2026-04-30 21:10 | 19.40905 | -70.32932 | 20783 ft | 363 kts | 151° |
| 2026-04-30 21:10 | 19.38779 | -70.31474 | 20351 ft | 361 kts | 152° |
| 2026-04-30 21:10 | 19.36702 | -70.30058 | 19916 ft | 356 kts | 151° |
| 2026-04-30 21:10 | 19.34627 | -70.28638 | 19504 ft | 356 kts | 151° |
| 2026-04-30 21:11 | 19.32542 | -70.27208 | 19086 ft | 355 kts | 151° |
| 2026-04-30 21:11 | 19.30463 | -70.25783 | 18677 ft | 354 kts | 150° |
| 2026-04-30 21:11 | 19.28419 | -70.24381 | 18283 ft | 354 kts | 150° |
| 2026-04-30 21:11 | 19.26354 | -70.22966 | 17973 ft | 349 kts | 150° |
| 2026-04-30 21:12 | 19.24349 | -70.21590 | 17939 ft | 338 kts | 150° |
| 2026-04-30 21:12 | 19.22390 | -70.20248 | 17864 ft | 340 kts | 151° |
| 2026-04-30 21:12 | 19.20367 | -70.18866 | 17309 ft | 348 kts | 150° |
| 2026-04-30 21:12 | 19.18336 | -70.17475 | 16833 ft | 350 kts | 150° |
| 2026-04-30 21:13 | 19.16270 | -70.16060 | 16324 ft | 351 kts | 150° |
| 2026-04-30 21:13 | 19.14259 | -70.14684 | 16085 ft | 344 kts | 150° |
| 2026-04-30 21:13 | 19.12331 | -70.13237 | 16003 ft | 335 kts | 144° |
| 2026-04-30 21:13 | 19.10537 | -70.11657 | 15612 ft | 339 kts | 142° |
| 2026-04-30 21:14 | 19.08760 | -70.10018 | 15162 ft | 342 kts | 141° |
| 2026-04-30 21:14 | 19.06959 | -70.08354 | 14699 ft | 344 kts | 141° |
| 2026-04-30 21:14 | 19.05141 | -70.06690 | 14241 ft | 345 kts | 141° |
| 2026-04-30 21:14 | 19.03334 | -70.05054 | 13792 ft | 345 kts | 141° |
| 2026-04-30 21:15 | 19.01510 | -70.03413 | 13281 ft | 341 kts | 141° |
| 2026-04-30 21:15 | 18.99713 | -70.01803 | 12766 ft | 334 kts | 142° |
| 2026-04-30 21:15 | 18.97979 | -70.00253 | 12258 ft | 326 kts | 141° |
| 2026-04-30 21:15 | 18.96259 | -69.98717 | 11770 ft | 319 kts | 141° |
| 2026-04-30 21:16 | 18.94571 | -69.97212 | 11290 ft | 314 kts | 141° |
| 2026-04-30 21:16 | 18.92910 | -69.95731 | 10802 ft | 310 kts | 141° |
| 2026-04-30 21:16 | 18.91298 | -69.94304 | 10388 ft | 303 kts | 143° |
| 2026-04-30 21:16 | 18.89589 | -69.93027 | 10004 ft | 295 kts | 148° |
| 2026-04-30 21:17 | 18.87894 | -69.91897 | 9599 ft | 282 kts | 149° |
| 2026-04-30 21:17 | 18.86255 | -69.90831 | 9212 ft | 272 kts | 150° |
| 2026-04-30 21:17 | 18.84657 | -69.89788 | 8865 ft | 268 kts | 149° |
| 2026-04-30 21:17 | 18.83095 | -69.88762 | 8505 ft | 268 kts | 149° |
| 2026-04-30 21:18 | 18.81515 | -69.87717 | 8147 ft | 267 kts | 149° |
| 2026-04-30 21:18 | 18.79940 | -69.86671 | 7802 ft | 266 kts | 149° |
| 2026-04-30 21:18 | 18.78387 | -69.85635 | 7455 ft | 267 kts | 149° |
| 2026-04-30 21:18 | 18.76819 | -69.84588 | 7106 ft | 266 kts | 149° |
| 2026-04-30 21:19 | 18.75261 | -69.83546 | 6752 ft | 264 kts | 148° |
| 2026-04-30 21:19 | 18.73708 | -69.82507 | 6409 ft | 261 kts | 148° |
| 2026-04-30 21:19 | 18.72207 | -69.81502 | 6057 ft | 258 kts | 148° |
| 2026-04-30 21:19 | 18.70694 | -69.80488 | 5717 ft | 255 kts | 148° |
| 2026-04-30 21:20 | 18.69193 | -69.79483 | 5377 ft | 254 kts | 148° |
| 2026-04-30 21:20 | 18.67721 | -69.78498 | 5054 ft | 253 kts | 147° |
| 2026-04-30 21:20 | 18.66239 | -69.77505 | 4723 ft | 250 kts | 147° |
| 2026-04-30 21:20 | 18.64806 | -69.76546 | 4381 ft | 235 kts | 147° |
| 2026-04-30 21:21 | 18.63471 | -69.75653 | 4090 ft | 225 kts | 147° |
| 2026-04-30 21:21 | 18.62168 | -69.74782 | 3801 ft | 216 kts | 147° |
| 2026-04-30 21:21 | 18.59786 | -69.73312 | 3291 ft | 188 kts | 155° |
| 2026-04-30 21:22 | 18.58556 | -69.72817 | 3070 ft | 189 kts | 158° |
| 2026-04-30 21:22 | 18.55148 | -69.71567 | 2372 ft | 164 kts | 159° |
| 2026-04-30 21:23 | 18.54080 | -69.71175 | 2140 ft | 162 kts | 158° |
| 2026-04-30 21:23 | 18.53012 | -69.70782 | 1931 ft | 161 kts | 158° |
| 2026-04-30 21:23 | 18.52447 | -69.70575 | 1807 ft | 162 kts | 158° |
| 2026-04-30 21:24 | 18.52273 | -69.70511 | 1776 ft | 163 kts | 159° |
| 2026-04-30 21:24 | 18.51199 | -69.70117 | 1557 ft | 161 kts | 158° |
| 2026-04-30 21:24 | 18.50159 | -69.69735 | 1336 ft | 159 kts | 158° |
| 2026-04-30 21:24 | 18.49105 | -69.69346 | 1127 ft | 162 kts | 159° |
| 2026-04-30 21:25 | 18.46999 | -69.68572 | 704 ft | 157 kts | 159° |
| 2026-04-30 21:25 | 18.45999 | -69.68196 | 506 ft | 152 kts | 159° |
| 2026-04-30 21:25 | 18.45023 | -69.67846 | 315 ft | 141 kts | 160° |
| 2026-04-30 21:26 | 18.43536 | -69.67297 | 59 ft | 121 kts | 160° |
| 2026-04-30 21:26 | 18.43025 | -69.67109 | 67 ft | 90 kts | 160° |
| 2026-04-30 21:27 | 18.42890 | -69.67061 | 70 ft | 79 kts | 162° |
| 2026-04-30 21:27 | 18.42483 | -69.66910 | 66 ft | 44 kts | 160° |
| 2026-04-30 21:28 | 18.42245 | -69.66788 | 62 ft | 7 kts | 165° |
| 2026-04-30 21:28 | 18.42228 | -69.66815 | 67 ft | 4 kts | 288° |
| 2026-04-30 21:28 | 18.42377 | -69.66874 | 66 ft | 26 kts | 342° |
| 2026-04-30 21:29 | 18.42581 | -69.66950 | 67 ft | 33 kts | 340° |
| 2026-04-30 21:29 | 18.42950 | -69.67166 | 65 ft | 14 kts | 276° |
| 2026-04-30 21:30 | 18.42955 | -69.67204 | 63 ft | 16 kts | 276° |
| 2026-04-30 21:31 | 18.42872 | -69.67336 | 64 ft | 7 kts | 187° |
| 2026-04-30 21:31 | 18.42845 | -69.67425 | 61 ft | 7 kts | 304° |
| 2026-04-30 21:32 | 18.42862 | -69.67446 | 67 ft | 0 kts | 309° |
| 2026-04-30 21:32 | 18.42862 | -69.67447 | 67 ft | 0 kts | 309° |